createdAt,value
2022-11-30T00:00:24.064Z,5.05
2022-11-30T00:02:26.830Z,5.08
2022-11-30T00:04:29.702Z,5.00
2022-11-30T00:06:33.783Z,5.03
2022-11-30T00:08:36.583Z,5.13
2022-11-30T00:10:39.844Z,5.09
2022-11-30T00:12:42.917Z,5.08
2022-11-30T00:14:45.809Z,5.03
2022-11-30T00:16:48.661Z,5.04
2022-11-30T00:18:51.663Z,5.04
2022-11-30T00:20:55.296Z,5.06
2022-11-30T00:22:59.689Z,5.06
2022-11-30T00:25:03.438Z,5.07
2022-11-30T00:27:06.170Z,5.17
2022-11-30T00:29:09.268Z,5.06
2022-11-30T00:31:14.301Z,5.06
2022-11-30T00:33:17.126Z,5.01
2022-11-30T00:35:19.997Z,4.98
2022-11-30T00:37:23.387Z,4.96
2022-11-30T00:39:31.040Z,4.99
2022-11-30T00:41:36.582Z,5.02
2022-11-30T00:43:39.334Z,4.95
2022-11-30T00:45:42.987Z,4.94
2022-11-30T00:47:45.699Z,4.99
2022-11-30T00:49:48.533Z,5.00
2022-11-30T00:51:51.487Z,4.94
2022-11-30T00:53:54.140Z,5.10
2022-11-30T00:55:58.305Z,4.99
2022-11-30T00:58:01.280Z,4.97
2022-11-30T01:00:04.943Z,4.97
2022-11-30T01:02:07.628Z,4.99
2022-11-30T01:04:10.384Z,4.97
2022-11-30T01:06:13.166Z,4.93
2022-11-30T01:08:16.598Z,4.99
2022-11-30T01:10:19.410Z,4.94
2022-11-30T01:12:23.612Z,4.86
2022-11-30T01:14:26.543Z,4.86
2022-11-30T01:16:32.371Z,4.87
2022-11-30T01:18:37.126Z,4.92
2022-11-30T01:20:41.744Z,4.90
2022-11-30T01:22:44.559Z,4.88
2022-11-30T01:24:47.722Z,4.93
2022-11-30T01:26:50.588Z,5.04
2022-11-30T01:28:55.916Z,4.95
2022-11-30T01:30:59.882Z,5.03
2022-11-30T01:33:03.585Z,5.01
2022-11-30T01:35:06.941Z,4.92
2022-11-30T01:37:09.982Z,4.90
2022-11-30T01:39:12.763Z,4.96
2022-11-30T01:41:19.259Z,5.02
2022-11-30T01:43:22.016Z,4.93
2022-11-30T01:45:26.407Z,4.87
2022-11-30T01:47:33.029Z,4.85
2022-11-30T01:49:39.219Z,4.97
2022-11-30T01:51:45.690Z,4.98
2022-11-30T01:53:48.778Z,4.88
2022-11-30T01:55:51.663Z,4.88
2022-11-30T01:57:58.796Z,4.94
2022-11-30T02:00:03.709Z,5.01
2022-11-30T02:02:07.881Z,5.02
2022-11-30T02:04:15.538Z,4.99
2022-11-30T02:06:18.975Z,4.99
2022-11-30T02:08:22.124Z,4.91
2022-11-30T02:10:28.786Z,4.89
2022-11-30T02:12:46.060Z,5.06
2022-11-30T02:14:55.267Z,4.89
2022-11-30T02:17:09.524Z,4.91
2022-11-30T02:19:37.329Z,4.94
2022-11-30T02:21:46.018Z,4.96
2022-11-30T02:24:29.997Z,5.02
2022-11-30T02:26:59.470Z,4.93
2022-11-30T02:29:13.467Z,4.91
2022-11-30T02:31:22.100Z,4.87
2022-11-30T02:33:28.811Z,4.92
2022-11-30T02:35:35.800Z,4.96
2022-11-30T02:37:40.635Z,4.92
2022-11-30T02:39:43.594Z,4.90
2022-11-30T02:41:46.594Z,4.95
2022-11-30T02:43:49.398Z,4.93
2022-11-30T02:46:00.575Z,4.99
2022-11-30T02:48:09.473Z,5.05
2022-11-30T02:50:16.470Z,4.83
2022-11-30T02:52:22.480Z,4.81
2022-11-30T02:54:25.696Z,4.92
2022-11-30T02:56:29.216Z,4.91
2022-11-30T02:58:32.628Z,4.97
2022-11-30T03:00:35.439Z,4.92
2022-11-30T03:02:39.749Z,4.89
2022-11-30T03:04:42.438Z,4.92
2022-11-30T03:06:45.079Z,4.91
2022-11-30T03:08:47.754Z,4.87
2022-11-30T03:10:50.543Z,4.97
2022-11-30T03:12:53.223Z,4.97
2022-11-30T03:14:55.959Z,4.87
2022-11-30T03:16:58.735Z,4.90
2022-11-30T03:19:02.818Z,4.98
2022-11-30T03:21:06.521Z,4.90
2022-11-30T03:23:09.742Z,4.93
2022-11-30T03:25:12.627Z,4.97
2022-11-30T03:27:15.648Z,4.91
2022-11-30T03:29:18.818Z,4.97
2022-11-30T03:31:21.676Z,4.87
2022-11-30T03:33:24.456Z,5.06
2022-11-30T03:35:28.546Z,4.92
2022-11-30T03:37:31.318Z,5.02
2022-11-30T03:39:34.116Z,4.90
2022-11-30T03:41:36.920Z,4.95
2022-11-30T03:43:39.730Z,4.98
2022-11-30T03:45:46.268Z,4.91
2022-11-30T03:47:48.895Z,4.94
2022-11-30T03:49:51.698Z,4.96
2022-11-30T03:51:55.751Z,4.95
2022-11-30T03:53:58.423Z,5.10
2022-11-30T03:56:02.822Z,4.99
2022-11-30T03:58:05.570Z,5.07
2022-11-30T04:00:09.492Z,4.94
2022-11-30T04:02:12.288Z,4.96
2022-11-30T04:04:15.168Z,4.98
2022-11-30T04:06:18.871Z,4.93
2022-11-30T04:08:22.930Z,5.03
2022-11-30T04:10:25.558Z,4.96
2022-11-30T04:12:28.290Z,5.01
2022-11-30T04:14:30.951Z,4.93
2022-11-30T04:16:33.824Z,4.96
2022-11-30T04:18:38.055Z,5.01
2022-11-30T04:20:40.915Z,4.97
2022-11-30T04:22:43.772Z,4.95
2022-11-30T04:24:48.094Z,4.97
2022-11-30T04:26:50.922Z,4.96
2022-11-30T04:28:53.700Z,4.97
2022-11-30T04:30:56.505Z,4.93
2022-11-30T04:32:59.517Z,4.97
2022-11-30T04:35:02.399Z,4.90
2022-11-30T04:37:05.116Z,4.91
2022-11-30T04:39:08.088Z,4.94
2022-11-30T04:41:12.216Z,4.99
2022-11-30T04:43:15.188Z,4.93
2022-11-30T04:45:18.151Z,4.89
2022-11-30T04:47:20.946Z,5.02
2022-11-30T04:49:23.771Z,4.87
2022-11-30T04:51:26.499Z,4.91
2022-11-30T04:53:29.275Z,4.90
2022-11-30T04:55:32.233Z,4.83
2022-11-30T04:57:36.318Z,4.89
2022-11-30T04:59:40.354Z,4.81
2022-11-30T05:01:43.267Z,4.91
2022-11-30T05:03:46.040Z,4.82
2022-11-30T05:05:48.758Z,4.90
2022-11-30T05:07:51.860Z,4.92
2022-11-30T05:09:54.888Z,4.91
2022-11-30T05:11:57.542Z,4.87
2022-11-30T05:14:01.774Z,4.83
2022-11-30T05:16:04.820Z,4.88
2022-11-30T05:18:07.594Z,4.87
2022-11-30T05:20:11.172Z,4.87
2022-11-30T05:22:13.880Z,4.86
2022-11-30T05:24:16.762Z,4.89
2022-11-30T05:26:19.484Z,5.04
2022-11-30T05:28:22.275Z,4.93
2022-11-30T05:30:26.410Z,4.98
2022-11-30T05:32:29.282Z,4.92
2022-11-30T05:34:41.290Z,4.85
2022-11-30T05:36:52.621Z,4.89
2022-11-30T05:38:55.509Z,4.95
2022-11-30T05:41:01.587Z,4.92
2022-11-30T05:43:05.675Z,4.86
2022-11-30T05:45:09.277Z,4.98
2022-11-30T05:47:13.562Z,4.98
2022-11-30T05:49:16.291Z,4.96
2022-11-30T05:51:21.188Z,5.00
2022-11-30T05:53:23.969Z,4.94
2022-11-30T05:55:26.629Z,4.96
2022-11-30T05:57:29.471Z,5.06
2022-11-30T05:59:32.243Z,5.01
2022-11-30T06:01:34.940Z,5.08
2022-11-30T06:03:38.988Z,5.14
2022-11-30T06:05:41.677Z,5.01
2022-11-30T06:07:44.430Z,5.04
2022-11-30T06:09:47.132Z,5.04
2022-11-30T06:11:49.805Z,4.99
2022-11-30T06:13:52.493Z,4.97
2022-11-30T06:15:55.315Z,4.97
2022-11-30T06:17:58.148Z,5.04
2022-11-30T06:20:02.249Z,5.02
2022-11-30T06:22:05.100Z,5.11
2022-11-30T06:24:08.638Z,5.03
2022-11-30T06:26:13.287Z,5.00
2022-11-30T06:28:15.972Z,4.98
2022-11-30T06:30:19.445Z,5.01
2022-11-30T06:32:22.150Z,5.01
2022-11-30T06:34:24.948Z,5.07
2022-11-30T06:36:35.513Z,5.10
2022-11-30T06:38:39.100Z,5.13
2022-11-30T06:40:41.737Z,5.03
2022-11-30T06:42:44.581Z,5.21
2022-11-30T06:44:48.797Z,5.21
2022-11-30T06:46:51.689Z,5.21
2022-11-30T06:48:54.540Z,5.15
2022-11-30T06:50:57.374Z,5.05
2022-11-30T06:53:01.478Z,5.18
2022-11-30T06:55:04.292Z,5.18
2022-11-30T06:57:06.981Z,5.18
2022-11-30T06:59:09.921Z,5.28
2022-11-30T07:01:15.098Z,5.32
2022-11-30T07:03:18.030Z,5.23
2022-11-30T07:05:20.762Z,5.17
2022-11-30T07:07:23.528Z,5.24
2022-11-30T07:09:27.711Z,5.26
2022-11-30T07:11:31.892Z,5.21
2022-11-30T07:13:36.000Z,5.26
2022-11-30T07:15:39.084Z,5.29
2022-11-30T07:17:42.316Z,5.24
2022-11-30T07:19:45.098Z,5.27
2022-11-30T07:21:47.865Z,5.23
2022-11-30T07:24:08.398Z,5.31
2022-11-30T07:26:12.780Z,5.26
2022-11-30T07:28:15.712Z,5.21
2022-11-30T07:30:19.169Z,5.15
2022-11-30T07:32:21.836Z,5.35
2022-11-30T07:34:24.613Z,5.20
2022-11-30T07:36:30.192Z,5.34
2022-11-30T07:38:32.921Z,5.32
2022-11-30T07:40:35.645Z,5.26
2022-11-30T07:42:39.772Z,5.13
2022-11-30T07:44:42.711Z,5.18
2022-11-30T07:46:45.377Z,5.42
2022-11-30T07:48:48.336Z,5.56
2022-11-30T07:50:51.230Z,5.32
2022-11-30T07:52:53.888Z,5.14
2022-11-30T07:54:56.568Z,5.10
2022-11-30T07:56:59.311Z,5.45
2022-11-30T07:59:04.243Z,5.47
2022-11-30T08:01:09.745Z,5.28
2022-11-30T08:03:12.552Z,5.40
2022-11-30T08:05:15.221Z,5.28
2022-11-30T08:07:18.045Z,5.23
2022-11-30T08:09:21.415Z,5.20
2022-11-30T08:11:26.230Z,5.22
2022-11-30T08:13:29.255Z,5.21
2022-11-30T08:15:33.925Z,5.17
2022-11-30T08:17:37.232Z,5.38
2022-11-30T08:19:40.137Z,5.65
2022-11-30T08:21:42.889Z,5.63
2022-11-30T08:23:48.031Z,5.48
2022-11-30T08:25:50.905Z,5.64
2022-11-30T08:27:53.650Z,5.69
2022-11-30T08:29:56.472Z,5.75
2022-11-30T08:32:00.521Z,5.71
2022-11-30T08:34:05.818Z,5.46
2022-11-30T08:36:09.930Z,5.48
2022-11-30T08:38:12.562Z,5.89
2022-11-30T08:40:15.654Z,5.76
2022-11-30T08:42:18.352Z,5.48
2022-11-30T08:44:21.072Z,5.59
2022-11-30T08:46:50.500Z,5.65
2022-11-30T08:48:50.389Z,6.02
2022-11-30T08:50:53.185Z,6.09
2022-11-30T08:52:59.372Z,5.56
2022-11-30T08:55:04.797Z,5.51
2022-11-30T08:57:07.528Z,5.67
2022-11-30T08:59:10.193Z,5.49
2022-11-30T09:01:15.433Z,5.51
2022-11-30T09:03:18.260Z,5.74
2022-11-30T09:05:22.322Z,5.84
2022-11-30T09:07:25.169Z,5.73
2022-11-30T09:09:28.230Z,5.74
2022-11-30T09:11:32.476Z,5.94
2022-11-30T09:13:36.918Z,6.13
2022-11-30T09:15:39.629Z,6.46
2022-11-30T09:17:42.353Z,6.39
2022-11-30T09:19:45.004Z,6.48
2022-11-30T09:21:51.924Z,6.37
2022-11-30T09:23:56.881Z,6.39
2022-11-30T09:26:01.551Z,5.96
2022-11-30T09:28:09.303Z,6.28
2022-11-30T09:30:15.177Z,6.36
2022-11-30T09:32:17.836Z,5.78
2022-11-30T09:34:20.662Z,5.86
2022-11-30T09:36:27.116Z,5.84
2022-11-30T09:38:31.348Z,5.83
2022-11-30T09:40:36.000Z,5.87
2022-11-30T09:42:53.041Z,5.67
2022-11-30T09:45:03.114Z,5.70
2022-11-30T09:47:14.044Z,5.48
2022-11-30T09:49:20.165Z,5.62
2022-11-30T09:51:29.028Z,5.96
2022-11-30T09:53:41.262Z,6.01
2022-11-30T09:55:45.396Z,6.03
2022-11-30T09:57:52.531Z,6.14
2022-11-30T09:59:57.879Z,6.19
2022-11-30T10:02:17.711Z,6.47
2022-11-30T10:04:23.740Z,6.07
2022-11-30T10:06:35.804Z,6.18
2022-11-30T10:08:51.757Z,6.05
2022-11-30T10:11:07.610Z,5.96
2022-11-30T10:13:24.400Z,6.12
2022-11-30T10:15:40.265Z,5.99
2022-11-30T10:17:53.709Z,6.45
2022-11-30T10:20:14.601Z,6.26
2022-11-30T10:22:27.197Z,6.28
2022-11-30T10:24:41.550Z,6.08
2022-11-30T10:26:53.408Z,5.96
2022-11-30T10:29:01.154Z,6.28
2022-11-30T10:31:04.540Z,5.98
2022-11-30T10:33:17.049Z,6.20
2022-11-30T10:35:30.275Z,6.15
2022-11-30T10:37:36.572Z,5.96
2022-11-30T10:39:48.970Z,5.71
2022-11-30T10:41:57.126Z,5.71
2022-11-30T10:44:06.005Z,5.74
2022-11-30T10:46:17.330Z,5.87
2022-11-30T10:48:26.844Z,5.61
2022-11-30T10:50:31.741Z,5.77
2022-11-30T10:52:42.943Z,5.63
2022-11-30T10:54:47.433Z,5.96
2022-11-30T10:56:51.361Z,5.99
2022-11-30T10:58:58.936Z,5.97
2022-11-30T11:01:06.855Z,5.65
2022-11-30T11:03:24.453Z,5.80
2022-11-30T11:05:29.226Z,6.08
2022-11-30T11:07:33.082Z,6.13
2022-11-30T11:09:39.932Z,6.18
2022-11-30T11:11:44.326Z,6.23
2022-11-30T11:13:47.319Z,6.18
2022-11-30T11:15:59.393Z,5.92
2022-11-30T11:18:24.021Z,5.79
2022-11-30T11:20:28.840Z,6.11
2022-11-30T11:22:32.734Z,6.04
2022-11-30T11:24:36.712Z,6.10
2022-11-30T11:26:39.502Z,5.90
2022-11-30T11:28:48.133Z,5.92
2022-11-30T11:30:53.961Z,5.85
2022-11-30T11:33:01.198Z,5.86
2022-11-30T11:35:04.716Z,6.00
2022-11-30T11:37:09.293Z,6.06
2022-11-30T11:39:26.586Z,5.99
2022-11-30T11:41:31.535Z,6.31
2022-11-30T11:43:55.751Z,6.09
2022-11-30T11:46:02.766Z,5.96
2022-11-30T11:48:08.243Z,6.09
2022-11-30T11:50:50.351Z,6.32
2022-11-30T11:52:48.851Z,6.06
2022-11-30T11:54:56.048Z,5.96
2022-11-30T11:57:00.274Z,5.96
2022-11-30T11:59:12.239Z,5.90
2022-11-30T12:01:39.759Z,6.14
2022-11-30T12:03:56.264Z,6.12
2022-11-30T12:06:04.354Z,6.20
2022-11-30T12:08:15.490Z,6.41
2022-11-30T12:10:50.780Z,6.29
2022-11-30T12:12:54.833Z,6.21
2022-11-30T12:14:58.421Z,6.11
2022-11-30T12:17:18.929Z,6.12
2022-11-30T12:19:24.021Z,6.03
2022-11-30T12:21:39.707Z,6.15
2022-11-30T12:24:04.541Z,5.97
2022-11-30T12:26:16.968Z,6.14
2022-11-30T12:28:28.306Z,6.18
2022-11-30T12:30:44.067Z,6.12
2022-11-30T12:33:09.747Z,6.14
2022-11-30T12:35:27.111Z,6.01
2022-11-30T12:37:45.935Z,5.99
2022-11-30T12:40:03.158Z,5.97
2022-11-30T12:42:13.511Z,5.90
2022-11-30T12:44:40.259Z,5.89
2022-11-30T12:46:55.386Z,5.91
2022-11-30T12:49:14.940Z,5.97
2022-11-30T12:51:28.051Z,5.95
2022-11-30T12:53:39.318Z,5.89
2022-11-30T12:55:51.445Z,5.90
2022-11-30T12:58:02.468Z,5.92
2022-11-30T13:00:12.651Z,5.95
2022-11-30T13:02:40.811Z,5.82
2022-11-30T13:04:51.959Z,6.06
2022-11-30T13:07:01.887Z,5.86
2022-11-30T13:09:07.998Z,5.76
2022-11-30T13:11:17.103Z,5.83
2022-11-30T13:13:25.972Z,5.63
2022-11-30T13:15:31.152Z,5.69
2022-11-30T13:17:34.615Z,5.81
2022-11-30T13:19:50.323Z,5.61
2022-11-30T13:21:58.988Z,5.79
2022-11-30T13:24:09.922Z,5.72
2022-11-30T13:26:24.980Z,5.72
2022-11-30T13:28:42.145Z,5.77
2022-11-30T13:30:54.381Z,5.70
2022-11-30T13:32:58.822Z,5.66
2022-11-30T13:35:45.469Z,5.61
2022-11-30T13:38:34.493Z,5.64
2022-11-30T13:40:25.455Z,5.68
2022-11-30T13:42:37.789Z,5.73
2022-11-30T13:44:42.557Z,5.66
2022-11-30T13:46:49.991Z,5.79
2022-11-30T13:49:19.357Z,5.72
2022-11-30T13:51:42.300Z,5.71
2022-11-30T13:53:45.268Z,5.70
2022-11-30T13:55:54.874Z,5.69
2022-11-30T13:58:07.192Z,5.83
2022-11-30T14:00:43.341Z,5.74
2022-11-30T14:02:57.699Z,5.66
2022-11-30T14:05:21.655Z,5.71
2022-11-30T14:07:39.286Z,5.90
2022-11-30T14:10:26.419Z,5.51
2022-11-30T14:12:59.975Z,5.56
2022-11-30T14:15:03.880Z,5.71
2022-11-30T14:17:14.762Z,5.63
2022-11-30T14:19:17.824Z,5.58
2022-11-30T14:21:27.872Z,5.66
2022-11-30T14:23:44.619Z,5.60
2022-11-30T14:25:50.065Z,5.57
2022-11-30T14:27:56.782Z,5.56
2022-11-30T14:30:03.012Z,5.52
2022-11-30T14:32:13.487Z,5.57
2022-11-30T14:34:20.904Z,5.58
2022-11-30T14:36:26.809Z,5.51
2022-11-30T14:38:32.328Z,5.53
2022-11-30T14:40:35.313Z,5.57
2022-11-30T14:42:38.215Z,5.38
2022-11-30T14:44:42.179Z,5.40
2022-11-30T14:46:45.115Z,5.42
2022-11-30T14:49:05.267Z,5.51
2022-11-30T14:51:12.194Z,5.46
2022-11-30T14:53:27.788Z,5.43
2022-11-30T14:55:39.592Z,5.46
2022-11-30T14:57:47.847Z,5.54
2022-11-30T14:59:53.919Z,5.42
2022-11-30T15:01:58.255Z,5.40
2022-11-30T15:04:07.661Z,5.46
2022-11-30T15:06:16.139Z,5.47
2022-11-30T15:08:20.329Z,5.65
2022-11-30T15:10:29.908Z,5.49
2022-11-30T15:12:36.361Z,5.46
2022-11-30T15:14:39.155Z,5.39
2022-11-30T15:16:48.581Z,5.41
2022-11-30T15:18:52.659Z,5.40
2022-11-30T15:20:58.937Z,5.39
2022-11-30T15:23:01.771Z,5.45
2022-11-30T15:25:05.112Z,5.43
2022-11-30T15:27:11.201Z,5.42
2022-11-30T15:29:23.071Z,5.43
2022-11-30T15:31:29.253Z,5.42
2022-11-30T15:33:37.862Z,5.41
2022-11-30T15:36:13.705Z,5.37
2022-11-30T15:38:10.439Z,5.37
2022-11-30T15:40:17.235Z,5.29
2022-11-30T15:42:21.464Z,5.37
2022-11-30T15:44:28.101Z,5.38
2022-11-30T15:46:33.973Z,5.39
2022-11-30T15:48:40.634Z,5.36
2022-11-30T15:50:43.909Z,5.28
2022-11-30T15:52:51.244Z,5.35
2022-11-30T15:54:55.469Z,5.34
2022-11-30T15:56:58.982Z,5.26
2022-11-30T15:59:05.341Z,5.29
2022-11-30T16:01:12.987Z,5.28
2022-11-30T16:03:15.961Z,5.24
2022-11-30T16:05:26.929Z,5.28
2022-11-30T16:07:32.132Z,5.28
2022-11-30T16:09:35.074Z,5.57
2022-11-30T16:11:38.319Z,5.28
2022-11-30T16:13:42.184Z,5.25
2022-11-30T16:15:47.666Z,5.44
2022-11-30T16:17:54.256Z,5.48
2022-11-30T16:19:57.082Z,5.44
2022-11-30T16:22:00.178Z,5.42
2022-11-30T16:24:03.073Z,5.36
2022-11-30T16:26:22.898Z,5.33
2022-11-30T16:28:33.282Z,5.22
2022-11-30T16:30:36.304Z,5.21
2022-11-30T16:32:39.297Z,5.21
2022-11-30T16:34:43.642Z,5.20
2022-11-30T16:36:46.597Z,5.35
2022-11-30T16:38:50.291Z,5.26
2022-11-30T16:40:55.627Z,5.24
2022-11-30T16:42:58.564Z,5.29
2022-11-30T16:45:01.443Z,5.18
2022-11-30T16:47:04.253Z,5.24
2022-11-30T16:49:07.251Z,5.21
2022-11-30T16:51:18.431Z,5.26
2022-11-30T16:53:22.859Z,5.31
2022-11-30T16:55:31.925Z,5.24
2022-11-30T16:57:34.616Z,5.24
2022-11-30T16:59:37.330Z,5.30
2022-11-30T17:01:44.211Z,5.26
2022-11-30T17:03:49.502Z,5.25
2022-11-30T17:05:52.306Z,5.24
2022-11-30T17:07:56.549Z,5.18
2022-11-30T17:09:59.375Z,5.20
2022-11-30T17:12:03.058Z,5.22
2022-11-30T17:14:06.442Z,5.13
2022-11-30T17:16:10.381Z,5.20
2022-11-30T17:18:13.136Z,5.13
2022-11-30T17:20:17.301Z,5.18
2022-11-30T17:22:20.242Z,5.17
2022-11-30T17:24:24.326Z,5.11
2022-11-30T17:26:27.945Z,5.17
2022-11-30T17:28:30.735Z,5.14
2022-11-30T17:30:33.548Z,5.12
2022-11-30T17:32:36.283Z,5.14
2022-11-30T17:34:39.244Z,5.10
2022-11-30T17:36:42.008Z,5.08
2022-11-30T17:38:45.394Z,5.06
2022-11-30T17:40:49.479Z,5.10
2022-11-30T17:42:52.260Z,5.18
2022-11-30T17:44:54.930Z,5.17
2022-11-30T17:46:57.657Z,5.12
2022-11-30T17:49:00.460Z,5.11
2022-11-30T17:51:03.286Z,5.18
2022-11-30T17:53:06.013Z,5.15
2022-11-30T17:55:09.775Z,5.21
2022-11-30T17:57:13.804Z,5.15
2022-11-30T17:59:16.464Z,5.11
2022-11-30T18:01:21.183Z,5.12
2022-11-30T18:03:24.117Z,5.29
2022-11-30T18:05:27.094Z,5.31
2022-11-30T18:07:30.003Z,5.17
2022-11-30T18:09:36.573Z,5.24
2022-11-30T18:11:42.174Z,5.34
2022-11-30T18:13:46.314Z,5.21
2022-11-30T18:15:49.237Z,5.26
2022-11-30T18:17:52.613Z,5.22
2022-11-30T18:19:55.344Z,5.02
2022-11-30T18:21:58.319Z,4.93
2022-11-30T18:24:01.080Z,4.91
2022-11-30T18:26:04.850Z,4.99
2022-11-30T18:28:07.577Z,4.94
2022-11-30T18:30:13.100Z,5.05
2022-11-30T18:32:15.840Z,5.08
2022-11-30T18:34:18.707Z,4.94
2022-11-30T18:36:21.408Z,4.99
2022-11-30T18:38:24.174Z,4.97
2022-11-30T18:40:27.195Z,4.93
2022-11-30T18:42:30.897Z,5.00
2022-11-30T18:44:33.606Z,4.94
2022-11-30T18:46:37.882Z,4.97
2022-11-30T18:48:41.972Z,4.91
2022-11-30T18:50:45.167Z,4.84
2022-11-30T18:52:47.826Z,4.88
2022-11-30T18:54:50.775Z,4.80
2022-11-30T18:56:53.964Z,4.69
2022-11-30T18:58:57.841Z,4.68
2022-11-30T19:01:08.114Z,4.74
2022-11-30T19:03:12.749Z,4.77
2022-11-30T19:05:31.559Z,4.68
2022-11-30T19:07:35.346Z,4.67
2022-11-30T19:09:38.215Z,4.65
2022-11-30T19:11:41.539Z,4.65
2022-11-30T19:13:44.431Z,4.62
2022-11-30T19:15:47.157Z,4.61
2022-11-30T19:17:49.875Z,4.57
2022-11-30T19:19:53.999Z,4.56
2022-11-30T19:21:58.266Z,4.60
2022-11-30T19:24:01.486Z,4.67
2022-11-30T19:26:05.093Z,4.56
2022-11-30T19:28:07.757Z,4.50
2022-11-30T19:30:11.629Z,4.52
2022-11-30T19:32:14.248Z,4.50
2022-11-30T19:34:16.925Z,4.64
2022-11-30T19:36:22.623Z,4.55
2022-11-30T19:38:25.284Z,4.46
2022-11-30T19:40:28.007Z,4.47
2022-11-30T19:42:31.435Z,4.43
2022-11-30T19:44:34.172Z,4.41
2022-11-30T19:46:36.892Z,4.58
2022-11-30T19:48:39.809Z,4.58
2022-11-30T19:50:42.456Z,4.54
2022-11-30T19:52:46.618Z,4.38
2022-11-30T19:54:49.612Z,4.36
2022-11-30T19:56:54.468Z,4.44
2022-11-30T19:59:04.068Z,4.34
2022-11-30T20:01:13.529Z,4.48
2022-11-30T20:03:16.388Z,4.32
2022-11-30T20:05:19.162Z,4.39
2022-11-30T20:07:21.865Z,4.28
2022-11-30T20:09:26.047Z,4.32
2022-11-30T20:11:29.366Z,4.33
2022-11-30T20:13:32.131Z,4.41
2022-11-30T20:15:34.875Z,4.27
2022-11-30T20:17:37.570Z,4.34
2022-11-30T20:19:40.318Z,4.24
2022-11-30T20:21:43.304Z,4.23
2022-11-30T20:23:47.672Z,4.27
2022-11-30T20:25:51.788Z,4.19
2022-11-30T20:27:54.522Z,4.29
2022-11-30T20:29:57.330Z,4.11
2022-11-30T20:32:00.032Z,4.03
2022-11-30T20:34:03.199Z,4.02
2022-11-30T20:36:08.269Z,4.11
2022-11-30T20:38:11.039Z,4.14
2022-11-30T20:40:14.005Z,4.02
2022-11-30T20:42:18.167Z,3.89
2022-11-30T20:44:20.912Z,3.98
2022-11-30T20:46:25.734Z,3.90
2022-11-30T20:48:29.077Z,3.87
2022-11-30T20:50:31.880Z,3.90
2022-11-30T20:52:35.272Z,3.73
2022-11-30T20:54:38.110Z,3.93
2022-11-30T20:56:41.262Z,3.77
2022-11-30T20:58:45.859Z,3.67
2022-11-30T21:00:48.654Z,3.61
2022-11-30T21:02:51.468Z,3.59
2022-11-30T21:04:54.400Z,3.57
2022-11-30T21:06:57.167Z,3.69
2022-11-30T21:09:01.068Z,3.60
2022-11-30T21:11:04.323Z,3.45
2022-11-30T21:13:06.986Z,3.51
2022-11-30T21:15:11.850Z,3.42
2022-11-30T21:17:14.505Z,3.58
2022-11-30T21:19:17.234Z,3.48
2022-11-30T21:21:21.833Z,3.54
2022-11-30T21:23:27.714Z,3.52
2022-11-30T21:25:30.463Z,3.46
2022-11-30T21:27:33.120Z,3.50
2022-11-30T21:29:35.993Z,3.31
2022-11-30T21:31:40.178Z,3.28
2022-11-30T21:33:48.542Z,3.30
2022-11-30T21:35:55.291Z,3.51
2022-11-30T21:37:57.994Z,3.34
2022-11-30T21:40:00.701Z,3.33
2022-11-30T21:42:03.386Z,3.35
2022-11-30T21:44:07.180Z,3.35
2022-11-30T21:46:13.502Z,3.40
2022-11-30T21:48:17.713Z,3.45
2022-11-30T21:50:25.786Z,3.29
2022-11-30T21:52:29.966Z,3.28
2022-11-30T21:54:32.619Z,3.21
2022-11-30T21:56:37.680Z,3.26
2022-11-30T21:58:41.423Z,3.22
2022-11-30T22:00:44.103Z,3.25
2022-11-30T22:02:48.588Z,3.25
2022-11-30T22:04:53.136Z,3.20
2022-11-30T22:06:55.926Z,3.30
2022-11-30T22:09:03.491Z,3.17
2022-11-30T22:11:08.073Z,3.25
2022-11-30T22:13:10.826Z,3.23
2022-11-30T22:15:14.646Z,3.03
2022-11-30T22:17:17.628Z,3.12
2022-11-30T22:19:20.598Z,3.11
2022-11-30T22:21:26.687Z,3.06
2022-11-30T22:23:29.552Z,3.03
2022-11-30T22:25:32.418Z,3.07
2022-11-30T22:27:37.408Z,3.07
2022-11-30T22:29:40.221Z,3.07
2022-11-30T22:31:44.794Z,3.07
2022-11-30T22:33:48.197Z,3.10
2022-11-30T22:35:51.153Z,3.02
2022-11-30T22:37:55.419Z,3.00
2022-11-30T22:39:58.261Z,2.91
2022-11-30T22:42:00.978Z,2.92
2022-11-30T22:44:03.939Z,2.89
2022-11-30T22:46:08.328Z,2.93
2022-11-30T22:48:11.358Z,2.87
2022-11-30T22:50:14.292Z,2.97
2022-11-30T22:52:16.978Z,2.92
2022-11-30T22:54:21.095Z,3.03
2022-11-30T22:56:25.509Z,3.00
2022-11-30T22:58:28.314Z,2.86
2022-11-30T23:00:31.063Z,2.84
2022-11-30T23:02:33.932Z,2.87
2022-11-30T23:04:36.760Z,2.89
2022-11-30T23:06:41.040Z,2.86
2022-11-30T23:08:44.887Z,2.87
2022-11-30T23:10:49.110Z,2.82
2022-11-30T23:12:59.707Z,2.78
2022-11-30T23:15:02.961Z,2.80
2022-11-30T23:17:05.683Z,2.78
2022-11-30T23:19:08.829Z,2.82
2022-11-30T23:21:16.080Z,2.84
2022-11-30T23:23:18.832Z,2.92
2022-11-30T23:25:21.605Z,2.81
2022-11-30T23:27:25.803Z,2.82
2022-11-30T23:29:28.544Z,2.77
2022-11-30T23:31:35.653Z,2.82
2022-11-30T23:33:38.743Z,2.63
2022-11-30T23:35:44.195Z,2.77
2022-11-30T23:37:46.907Z,2.83
2022-11-30T23:39:49.886Z,2.75
2022-11-30T23:41:52.761Z,2.74
2022-11-30T23:43:57.062Z,2.70
2022-11-30T23:45:59.835Z,2.80
2022-11-30T23:48:02.572Z,2.66
2022-11-30T23:50:06.770Z,2.68
2022-11-30T23:52:09.514Z,2.67
2022-11-30T23:54:12.467Z,2.72
2022-11-30T23:56:17.596Z,2.62
2022-11-30T23:58:20.988Z,2.72
